CheckWX is a tool to help pilots better visualize weather data.  It is not intended as a substitute for an official pre-flight weather briefing.

20:34:53 UTC

KRDM METAR
Roberts Field Airport
Redmond, Oregon, USA
Current

39 mins ago

KRDM 181956Z 00000KT 10SM CLR 23/04 A3023 RMK AO2 SLP224 T02330044
Observed
Apr-18 @ 19:56 UTC
Visibility
10 SM
Flight Rules
VFR
Cloud Levels
  • Clear skies
Temperature
23°C / 73°F
Dewpoint
C / 39°F
Humidity
29%
Altimeter
30.23" Hg
Pressure
1022.4 hPa
Previous

2 hours ago

KRDM 181856Z 00000KT 10SM CLR 22/04 A3025 RMK AO2 SLP233 T02170039
Observed
Apr-18 @ 18:56 UTC
Visibility
10 SM
Flight Rules
VFR
Cloud Levels
  • Clear skies
Temperature
22°C / 72°F
Dewpoint
C / 39°F
Humidity
31%
Altimeter
30.25" Hg
Pressure
1023.3 hPa
Previous

3 hours ago

KRDM 181756Z 00000KT 10SM CLR 19/03 A3027 RMK AO2 SLP240 T01890028 10194 20022 56011
Observed
Apr-18 @ 17:56 UTC
Visibility
10 SM
Flight Rules
VFR
Cloud Levels
  • Clear skies
Temperature
19°C / 66°F
Dewpoint
C / 37°F
Humidity
35%
Altimeter
30.27" Hg
Pressure
1024 hPa